createdAt,value
2019-05-06T00:01:37.583Z,67.37
2019-05-06T00:04:10.172Z,67.57
2019-05-06T00:06:44.000Z,67.85
2019-05-06T00:09:16.735Z,68.09
2019-05-06T00:11:49.771Z,68.51
2019-05-06T00:14:23.538Z,68.83
2019-05-06T00:16:58.627Z,68.80
2019-05-06T00:19:31.340Z,68.68
2019-05-06T00:22:04.722Z,68.41
2019-05-06T00:24:48.031Z,68.29
2019-05-06T00:27:29.138Z,68.34
2019-05-06T00:30:04.493Z,68.53
2019-05-06T00:32:37.315Z,68.71
2019-05-06T00:35:10.956Z,68.82
2019-05-06T00:37:44.225Z,68.85
2019-05-06T00:40:26.091Z,68.99
2019-05-06T00:43:01.948Z,69.26
2019-05-06T00:45:34.522Z,69.44
2019-05-06T00:48:07.268Z,69.55
2019-05-06T00:50:39.784Z,69.56
2019-05-06T00:53:19.247Z,69.54
2019-05-06T00:55:53.670Z,69.54
2019-05-06T00:58:26.332Z,69.55
2019-05-06T01:00:59.619Z,69.45
2019-05-06T01:03:34.508Z,69.37
2019-05-06T01:06:07.387Z,69.54
2019-05-06T01:08:40.183Z,69.71
2019-05-06T01:11:14.417Z,69.71
2019-05-06T01:13:57.044Z,69.78
2019-05-06T01:16:29.859Z,69.85
2019-05-06T01:19:04.533Z,69.87
2019-05-06T01:21:37.621Z,69.71
2019-05-06T01:24:10.264Z,69.42
2019-05-06T01:26:44.301Z,69.45
2019-05-06T01:29:16.923Z,69.24
2019-05-06T01:31:51.019Z,69.35
2019-05-06T01:34:24.533Z,69.52
2019-05-06T01:36:59.315Z,69.63
2019-05-06T01:39:51.578Z,69.53
2019-05-06T01:42:48.698Z,69.36
2019-05-06T01:45:21.282Z,69.15
2019-05-06T01:47:54.439Z,68.82
2019-05-06T01:50:27.069Z,68.90
2019-05-06T01:53:00.188Z,69.03
2019-05-06T01:55:34.300Z,69.14
2019-05-06T01:58:07.308Z,69.16
2019-05-06T02:00:39.795Z,69.20
2019-05-06T02:03:14.826Z,69.32
2019-05-06T02:05:47.678Z,69.44
2019-05-06T02:08:20.227Z,69.55
2019-05-06T02:10:54.545Z,69.64
2019-05-06T02:13:27.251Z,69.83
2019-05-06T02:15:59.760Z,69.98
2019-05-06T02:18:33.968Z,70.22
2019-05-06T02:21:13.858Z,70.38
2019-05-06T02:23:53.937Z,70.44
2019-05-06T02:26:26.590Z,70.39
2019-05-06T02:29:04.817Z,70.32
2019-05-06T02:31:45.952Z,70.36
2019-05-06T02:34:26.223Z,70.29
2019-05-06T02:37:07.347Z,70.26
2019-05-06T02:39:39.871Z,70.24
2019-05-06T02:42:13.135Z,70.27
2019-05-06T02:44:45.850Z,70.36
2019-05-06T02:47:42.754Z,70.48
2019-05-06T02:50:18.937Z,70.58
2019-05-06T02:52:53.838Z,70.62
2019-05-06T02:55:26.835Z,70.83
2019-05-06T02:58:02.779Z,70.96
2019-05-06T03:00:35.751Z,71.13
2019-05-06T03:03:33.774Z,71.19
2019-05-06T03:06:07.371Z,71.10
2019-05-06T03:08:39.864Z,71.14
2019-05-06T03:11:13.561Z,71.26
2019-05-06T03:13:46.864Z,71.33
2019-05-06T03:16:19.899Z,71.38
2019-05-06T03:18:53.818Z,71.48
2019-05-06T03:21:44.832Z,71.46
2019-05-06T03:24:24.557Z,71.36
2019-05-06T03:26:59.620Z,71.43
2019-05-06T03:29:33.618Z,71.53
2019-05-06T03:32:07.840Z,71.62
2019-05-06T03:35:01.416Z,71.59
2019-05-06T03:37:53.254Z,71.46
2019-05-06T03:40:26.339Z,71.38
2019-05-06T03:42:58.963Z,71.34
2019-05-06T03:45:53.497Z,71.25
2019-05-06T03:48:29.567Z,71.50
2019-05-06T03:51:04.180Z,71.53
2019-05-06T03:53:39.001Z,71.70
2019-05-06T03:56:16.838Z,71.81
2019-05-06T03:58:53.672Z,71.85
2019-05-06T04:01:26.795Z,71.88
2019-05-06T04:03:59.506Z,71.89
2019-05-06T04:06:33.464Z,71.95
2019-05-06T04:09:06.820Z,72.07
2019-05-06T04:11:39.823Z,72.40
2019-05-06T04:14:13.962Z,72.59
2019-05-06T04:16:56.892Z,72.76
2019-05-06T04:19:37.091Z,72.80
2019-05-06T04:22:15.430Z,72.69
2019-05-06T04:24:59.258Z,72.56
2019-05-06T04:27:38.132Z,72.55
2019-05-06T04:30:13.903Z,72.58
2019-05-06T04:32:47.195Z,72.56
2019-05-06T04:35:22.752Z,72.47
2019-05-06T04:37:55.790Z,72.41
2019-05-06T04:40:28.344Z,72.36
2019-05-06T04:43:03.571Z,72.28
2019-05-06T04:45:37.208Z,72.15
2019-05-06T04:48:14.458Z,72.12
2019-05-06T04:50:49.347Z,72.22
2019-05-06T04:53:23.813Z,72.30
2019-05-06T04:56:03.915Z,72.41
2019-05-06T04:58:39.471Z,72.69
2019-05-06T05:01:15.677Z,72.81
2019-05-06T05:03:48.752Z,72.89
2019-05-06T05:06:23.084Z,72.97
2019-05-06T05:08:56.388Z,72.97
2019-05-06T05:11:42.339Z,73.11
2019-05-06T05:14:25.914Z,73.19
2019-05-06T05:17:07.560Z,73.14
2019-05-06T05:19:42.780Z,73.28
2019-05-06T05:22:16.346Z,73.42
2019-05-06T05:24:52.088Z,73.53
2019-05-06T05:27:24.744Z,73.59
2019-05-06T05:29:57.384Z,73.55
2019-05-06T05:32:32.098Z,73.51
2019-05-06T05:35:05.515Z,73.56
2019-05-06T05:37:41.953Z,74.00
2019-05-06T05:40:17.297Z,74.31
2019-05-06T05:43:02.913Z,74.84
2019-05-06T05:45:37.749Z,75.15
2019-05-06T05:48:34.983Z,75.13
2019-05-06T05:51:07.787Z,75.07
2019-05-06T05:53:42.475Z,75.04
2019-05-06T05:56:15.413Z,75.08
2019-05-06T05:58:48.898Z,75.21
2019-05-06T06:01:23.257Z,75.37
2019-05-06T06:03:58.696Z,75.72
2019-05-06T06:06:33.146Z,75.80
2019-05-06T06:09:07.579Z,75.67
2019-05-06T06:11:48.660Z,75.78
2019-05-06T06:14:55.760Z,75.83
2019-05-06T06:17:49.071Z,75.70
2019-05-06T06:20:29.662Z,75.70
2019-05-06T06:23:17.707Z,75.70
2019-05-06T06:25:52.936Z,75.46
2019-05-06T06:28:28.737Z,75.13
2019-05-06T06:31:24.048Z,74.96
2019-05-06T06:34:02.390Z,74.78
2019-05-06T06:36:45.142Z,74.84
2019-05-06T06:39:22.866Z,74.83
2019-05-06T06:41:58.490Z,74.34
2019-05-06T06:44:34.303Z,73.95
2019-05-06T06:47:06.894Z,74.22
2019-05-06T06:49:43.136Z,74.23
2019-05-06T06:52:23.181Z,73.86
2019-05-06T06:54:56.588Z,73.36
2019-05-06T06:57:42.379Z,73.10
2019-05-06T07:00:39.302Z,72.30
2019-05-06T07:03:17.697Z,71.99
2019-05-06T07:06:12.680Z,71.69
2019-05-06T07:09:02.700Z,71.29
2019-05-06T07:11:35.728Z,71.16
2019-05-06T07:14:10.811Z,71.34
2019-05-06T07:16:45.261Z,71.37
2019-05-06T07:19:26.621Z,71.35
2019-05-06T07:21:59.290Z,71.81
2019-05-06T07:24:32.434Z,72.14
2019-05-06T07:27:13.482Z,71.71
2019-05-06T07:29:48.696Z,71.30
2019-05-06T07:32:23.173Z,71.07
2019-05-06T07:34:56.947Z,71.32
2019-05-06T07:37:29.771Z,71.38
2019-05-06T07:40:04.938Z,71.46
2019-05-06T07:42:45.974Z,71.44
2019-05-06T07:45:30.084Z,71.65
2019-05-06T07:48:06.167Z,71.12
2019-05-06T07:50:49.166Z,71.08
2019-05-06T07:53:22.481Z,70.74
2019-05-06T07:55:55.819Z,70.58
2019-05-06T07:58:28.595Z,70.51
2019-05-06T08:03:23.239Z,70.07
2019-05-06T08:05:58.819Z,70.24
2019-05-06T08:08:33.509Z,69.43
2019-05-06T08:11:06.381Z,69.75
2019-05-06T08:13:43.249Z,69.31
2019-05-06T08:16:16.271Z,68.48
2019-05-06T08:18:49.126Z,68.36
2019-05-06T08:21:26.617Z,67.24
2019-05-06T08:23:59.422Z,67.00
2019-05-06T08:26:32.350Z,66.48
2019-05-06T08:29:05.319Z,66.39
2019-05-06T08:31:38.629Z,65.02
2019-05-06T08:34:12.255Z,64.54
2019-05-06T08:37:02.491Z,64.29
2019-05-06T08:39:36.313Z,64.03
2019-05-06T08:42:13.957Z,63.92
2019-05-06T08:44:46.708Z,62.62
2019-05-06T08:47:19.363Z,61.63
2019-05-06T08:50:05.640Z,61.35
2019-05-06T08:52:45.690Z,60.82
2019-05-06T08:55:27.193Z,61.04
2019-05-06T08:58:02.733Z,60.89
2019-05-06T09:00:45.426Z,60.71
2019-05-06T09:03:18.198Z,60.07
2019-05-06T09:05:53.256Z,59.93
2019-05-06T09:08:26.193Z,58.35
2019-05-06T09:10:58.806Z,58.12
2019-05-06T09:13:32.654Z,57.66
2019-05-06T09:16:08.340Z,54.69
2019-05-06T09:18:42.795Z,54.84
2019-05-06T09:21:17.449Z,55.38
2019-05-06T09:23:52.902Z,55.16
2019-05-06T09:26:37.235Z,55.18
2019-05-06T09:29:17.641Z,56.04
2019-05-06T09:31:52.975Z,56.25
2019-05-06T09:34:39.156Z,56.55
2019-05-06T09:37:14.116Z,55.95
2019-05-06T09:39:47.315Z,55.66
2019-05-06T09:42:23.206Z,56.00
2019-05-06T09:44:57.513Z,57.33
2019-05-06T09:47:37.400Z,58.39
2019-05-06T09:50:12.914Z,59.45
2019-05-06T09:52:45.737Z,60.20
2019-05-06T09:55:26.388Z,60.36
2019-05-06T09:58:03.518Z,60.19
2019-05-06T10:00:42.930Z,60.01
2019-05-06T10:03:17.464Z,60.23
2019-05-06T10:05:53.122Z,60.12
2019-05-06T10:08:28.303Z,60.47
2019-05-06T10:11:02.913Z,61.47
2019-05-06T10:13:36.883Z,61.52
2019-05-06T10:16:09.658Z,61.78
2019-05-06T10:18:43.135Z,61.66
2019-05-06T10:21:17.020Z,61.27
2019-05-06T10:23:52.807Z,60.65
2019-05-06T10:26:32.598Z,60.63
2019-05-06T10:29:27.007Z,60.55
2019-05-06T10:32:23.181Z,60.67
2019-05-06T10:35:05.850Z,59.49
2019-05-06T10:38:13.436Z,58.59
2019-05-06T10:41:00.869Z,58.61
2019-05-06T10:43:59.150Z,58.62
2019-05-06T10:46:33.491Z,58.89
2019-05-06T10:49:08.395Z,59.47
2019-05-06T10:51:53.009Z,59.69
2019-05-06T10:54:27.559Z,59.21
2019-05-06T10:57:12.529Z,59.35
2019-05-06T10:59:45.310Z,59.35
2019-05-06T11:02:43.723Z,59.15
2019-05-06T11:05:20.454Z,59.70
2019-05-06T11:07:58.115Z,58.80
2019-05-06T11:10:40.020Z,59.42
2019-05-06T11:13:18.753Z,58.90
2019-05-06T11:15:56.532Z,58.38
2019-05-06T11:18:34.250Z,58.99
2019-05-06T11:21:18.668Z,63.42
2019-05-06T11:23:53.644Z,67.21
2019-05-06T11:26:29.840Z,69.31
2019-05-06T11:29:27.912Z,70.57
2019-05-06T11:32:17.928Z,70.26
2019-05-06T11:35:03.782Z,69.49
2019-05-06T11:38:12.017Z,69.64
2019-05-06T11:40:52.917Z,70.07
2019-05-06T11:43:32.511Z,70.33
2019-05-06T11:46:33.397Z,70.47
2019-05-06T11:49:07.934Z,69.94
2019-05-06T11:51:43.904Z,69.89
2019-05-06T11:54:20.863Z,68.78
2019-05-06T11:56:58.730Z,67.20
2019-05-06T11:59:36.717Z,66.47
2019-05-06T12:02:14.625Z,65.04
2019-05-06T12:04:52.811Z,64.35
2019-05-06T12:07:26.729Z,63.69
2019-05-06T12:10:06.454Z,64.66
2019-05-06T12:12:39.146Z,63.47
2019-05-06T12:15:19.861Z,63.55
2019-05-06T12:17:55.612Z,62.65
2019-05-06T12:20:32.947Z,62.25
2019-05-06T12:23:07.757Z,59.91
2019-05-06T12:25:40.254Z,58.63
2019-05-06T12:28:12.706Z,57.70
2019-05-06T12:30:45.577Z,58.28
2019-05-06T12:33:38.012Z,58.94
2019-05-06T12:36:19.719Z,59.05
2019-05-06T12:39:06.305Z,57.70
2019-05-06T12:42:04.588Z,57.28
2019-05-06T12:45:13.041Z,57.59
2019-05-06T12:48:08.111Z,57.73
2019-05-06T12:50:43.071Z,57.64
2019-05-06T12:53:16.912Z,57.20
2019-05-06T12:55:54.867Z,56.83
2019-05-06T12:58:27.963Z,56.77
2019-05-06T13:01:04.008Z,55.92
2019-05-06T13:03:38.624Z,56.25
2019-05-06T13:06:12.955Z,56.88
2019-05-06T13:08:58.813Z,56.37
2019-05-06T13:11:34.017Z,56.41
2019-05-06T13:14:10.048Z,57.37
2019-05-06T13:16:44.065Z,56.06
2019-05-06T13:19:18.049Z,56.79
2019-05-06T13:21:54.918Z,56.83
2019-05-06T13:24:28.541Z,56.75
2019-05-06T13:27:05.444Z,56.04
2019-05-06T13:29:38.072Z,55.25
2019-05-06T13:32:20.608Z,55.75
2019-05-06T13:34:58.937Z,56.33
2019-05-06T13:37:33.624Z,56.26
2019-05-06T13:40:08.631Z,55.60
2019-05-06T13:43:33.057Z,55.03
2019-05-06T13:46:15.251Z,55.62
2019-05-06T13:49:15.547Z,55.86
2019-05-06T13:52:04.244Z,54.22
2019-05-06T13:54:41.962Z,53.85
2019-05-06T13:57:15.548Z,54.10
2019-05-06T13:59:48.247Z,54.47
2019-05-06T14:02:26.565Z,53.69
2019-05-06T14:05:02.757Z,53.38
2019-05-06T14:07:36.880Z,53.77
2019-05-06T14:10:12.997Z,54.21
2019-05-06T14:12:47.260Z,54.23
2019-05-06T14:15:23.232Z,54.29
2019-05-06T14:18:02.741Z,53.92
2019-05-06T14:20:36.409Z,54.74
2019-05-06T14:23:12.591Z,55.16
2019-05-06T14:26:04.334Z,55.63
2019-05-06T14:28:44.467Z,54.26
2019-05-06T14:31:25.400Z,53.66
2019-05-06T14:33:59.503Z,54.07
2019-05-06T14:36:33.502Z,52.92
2019-05-06T14:39:17.462Z,52.55
2019-05-06T14:41:53.666Z,52.29
2019-05-06T14:44:26.968Z,51.55
2019-05-06T14:47:08.531Z,51.10
2019-05-06T14:49:43.442Z,51.49
2019-05-06T14:52:18.510Z,51.56
2019-05-06T14:54:55.800Z,51.22
2019-05-06T14:57:29.121Z,51.46
2019-05-06T15:00:07.799Z,51.36
2019-05-06T15:02:43.552Z,51.78
2019-05-06T15:05:17.763Z,52.67
2019-05-06T15:07:56.040Z,52.94
2019-05-06T15:10:29.388Z,53.47
2019-05-06T15:13:04.426Z,53.82
2019-05-06T15:15:37.437Z,54.19
2019-05-06T15:18:12.566Z,54.30
2019-05-06T15:20:47.800Z,54.54
2019-05-06T15:23:22.746Z,54.46
2019-05-06T15:25:56.748Z,54.04
2019-05-06T15:28:29.347Z,54.66
2019-05-06T15:31:14.590Z,55.70
2019-05-06T15:33:52.936Z,57.72
2019-05-06T15:36:33.963Z,59.88
2019-05-06T15:39:07.741Z,61.97
2019-05-06T15:41:42.719Z,64.95
2019-05-06T15:44:16.399Z,65.86
2019-05-06T15:46:49.225Z,67.54
2019-05-06T15:49:22.430Z,69.01
2019-05-06T15:51:56.500Z,70.18
2019-05-06T15:54:32.241Z,70.98
2019-05-06T15:57:11.521Z,71.30
2019-05-06T15:59:47.480Z,71.96
2019-05-06T16:02:23.144Z,72.56
2019-05-06T16:04:57.653Z,72.90
2019-05-06T16:07:37.009Z,73.35
2019-05-06T16:10:13.280Z,73.76
2019-05-06T16:12:49.099Z,74.24
2019-05-06T16:15:24.478Z,74.40
2019-05-06T16:17:57.813Z,74.35
2019-05-06T16:20:33.145Z,74.68
2019-05-06T16:23:15.986Z,74.62
2019-05-06T16:25:52.487Z,74.49
2019-05-06T16:28:27.141Z,74.31
2019-05-06T16:30:59.724Z,74.35
2019-05-06T16:33:33.501Z,74.26
2019-05-06T16:36:07.686Z,74.18
2019-05-06T16:38:42.936Z,74.00
2019-05-06T16:41:16.296Z,73.66
2019-05-06T16:43:52.586Z,73.03
2019-05-06T16:46:26.233Z,72.72
2019-05-06T16:48:58.890Z,73.16
2019-05-06T16:51:33.546Z,73.20
2019-05-06T16:54:07.805Z,72.95
2019-05-06T16:56:49.689Z,72.44
2019-05-06T16:59:23.818Z,72.25
2019-05-06T17:01:58.657Z,72.28
2019-05-06T17:04:42.813Z,72.21
2019-05-06T17:07:22.166Z,72.19
2019-05-06T17:09:55.324Z,71.96
2019-05-06T17:12:32.665Z,72.34
2019-05-06T17:15:07.795Z,72.95
2019-05-06T17:17:46.755Z,73.51
2019-05-06T17:20:20.256Z,74.16
2019-05-06T17:22:53.704Z,74.03
2019-05-06T17:25:27.539Z,73.96
2019-05-06T17:28:22.275Z,73.60
2019-05-06T17:31:14.556Z,72.74
2019-05-06T17:34:06.594Z,72.72
2019-05-06T17:36:43.427Z,72.49
2019-05-06T17:39:16.208Z,72.59
2019-05-06T17:41:52.472Z,73.01
2019-05-06T17:44:28.047Z,73.39
2019-05-06T17:47:12.220Z,73.84
2019-05-06T17:49:52.873Z,74.53
2019-05-06T17:52:26.997Z,74.59
2019-05-06T17:55:02.889Z,74.93
2019-05-06T17:57:36.240Z,74.91
2019-05-06T18:00:17.625Z,74.54
2019-05-06T18:02:52.650Z,74.88
2019-05-06T18:05:32.347Z,75.29
2019-05-06T18:08:09.733Z,75.86
2019-05-06T18:10:42.747Z,76.37
2019-05-06T18:13:16.089Z,77.07
2019-05-06T18:15:53.023Z,77.40
2019-05-06T18:18:28.843Z,77.30
2019-05-06T18:21:03.389Z,77.59
2019-05-06T18:23:37.189Z,77.69
2019-05-06T18:26:10.755Z,77.98
2019-05-06T18:28:45.477Z,78.20
2019-05-06T18:31:19.558Z,78.39
2019-05-06T18:33:59.198Z,78.50
2019-05-06T18:36:37.389Z,78.55
2019-05-06T18:39:18.108Z,78.50
2019-05-06T18:41:54.566Z,78.80
2019-05-06T18:44:37.198Z,78.83
2019-05-06T18:47:18.434Z,78.87
2019-05-06T18:49:52.476Z,79.04
2019-05-06T18:52:29.512Z,79.08
2019-05-06T18:55:06.332Z,79.26
2019-05-06T18:57:55.248Z,79.45
2019-05-06T19:00:32.017Z,79.53
2019-05-06T19:03:05.949Z,79.57
2019-05-06T19:05:39.664Z,79.70
2019-05-06T19:08:34.845Z,79.68
2019-05-06T19:13:53.170Z,79.40
2019-05-06T19:16:27.267Z,78.85
2019-05-06T19:19:03.685Z,78.69
2019-05-06T19:21:39.823Z,78.65
2019-05-06T19:24:16.118Z,78.53
2019-05-06T19:26:48.840Z,78.43
2019-05-06T19:29:23.225Z,78.65
2019-05-06T19:31:56.954Z,78.83
2019-05-06T19:34:34.576Z,78.89
2019-05-06T19:37:10.439Z,78.95
2019-05-06T19:39:44.425Z,79.21
2019-05-06T19:42:22.408Z,79.38
2019-05-06T19:44:57.288Z,79.54
2019-05-06T19:47:31.942Z,79.79
2019-05-06T19:50:06.606Z,80.01
2019-05-06T19:52:52.793Z,80.24
2019-05-06T19:55:25.749Z,80.34
2019-05-06T19:58:02.190Z,80.49
2019-05-06T20:00:46.194Z,80.47
2019-05-06T20:03:23.247Z,80.50
2019-05-06T20:06:33.865Z,80.53
2019-05-06T20:09:14.652Z,80.43
2019-05-06T20:11:51.927Z,80.43
2019-05-06T20:14:31.013Z,80.47
2019-05-06T20:17:04.246Z,80.53
2019-05-06T20:19:42.597Z,80.70
2019-05-06T20:22:15.318Z,80.69
2019-05-06T20:24:52.052Z,80.78
2019-05-06T20:27:25.708Z,80.91
2019-05-06T20:29:59.413Z,80.86
2019-05-06T20:32:32.306Z,80.87
2019-05-06T20:35:07.737Z,80.73
2019-05-06T20:37:45.037Z,80.63
2019-05-06T20:40:18.795Z,80.65
2019-05-06T20:42:51.360Z,80.60
2019-05-06T20:45:25.648Z,80.51
2019-05-06T20:47:59.010Z,80.43
2019-05-06T20:50:32.791Z,80.45
2019-05-06T20:53:05.416Z,80.40
2019-05-06T20:55:39.367Z,80.12
2019-05-06T20:58:12.761Z,80.20
2019-05-06T21:00:47.363Z,80.35
2019-05-06T21:03:21.939Z,80.36
2019-05-06T21:05:54.764Z,80.30
2019-05-06T21:08:27.427Z,80.39
2019-05-06T21:11:00.308Z,80.52
2019-05-06T21:13:38.614Z,80.72
2019-05-06T21:16:17.005Z,80.77
2019-05-06T21:18:49.528Z,80.79
2019-05-06T21:21:23.100Z,80.87
2019-05-06T21:23:55.692Z,80.96
2019-05-06T21:26:28.536Z,80.99
2019-05-06T21:29:03.469Z,81.10
2019-05-06T21:31:36.090Z,81.35
2019-05-06T21:34:08.596Z,81.39
2019-05-06T21:36:42.285Z,81.48
2019-05-06T21:39:15.049Z,81.56
2019-05-06T21:41:47.600Z,81.60
2019-05-06T21:44:22.876Z,81.65
2019-05-06T21:46:57.447Z,81.68
2019-05-06T21:49:32.704Z,81.66
2019-05-06T21:52:09.821Z,81.76
2019-05-06T21:54:43.540Z,81.86
2019-05-06T21:57:16.170Z,81.98
2019-05-06T21:59:55.703Z,82.07
2019-05-06T22:02:32.719Z,82.25
2019-05-06T22:05:08.850Z,82.29
2019-05-06T22:07:45.315Z,82.32
2019-05-06T22:10:17.864Z,82.29
2019-05-06T22:12:52.573Z,82.31
2019-05-06T22:15:26.243Z,82.31
2019-05-06T22:17:59.715Z,82.25
2019-05-06T22:21:08.742Z,82.27
2019-05-06T22:23:46.777Z,82.09
2019-05-06T22:26:23.147Z,81.76
2019-05-06T22:28:56.855Z,81.70
2019-05-06T22:31:29.430Z,81.72
2019-05-06T22:34:03.060Z,81.72
2019-05-06T22:36:36.914Z,81.71
2019-05-06T22:39:11.860Z,81.82
2019-05-06T22:41:44.439Z,81.97
2019-05-06T22:44:17.557Z,81.97
2019-05-06T22:46:50.816Z,82.13
2019-05-06T22:49:27.477Z,82.22
2019-05-06T22:52:02.898Z,82.22
2019-05-06T22:54:38.743Z,82.25
2019-05-06T22:57:12.099Z,82.29
2019-05-06T22:59:44.812Z,82.29
2019-05-06T23:02:32.141Z,82.36
2019-05-06T23:05:13.080Z,82.43
2019-05-06T23:07:45.687Z,82.43
2019-05-06T23:10:18.508Z,82.31
2019-05-06T23:12:52.322Z,82.10
2019-05-06T23:15:25.370Z,82.08
2019-05-06T23:17:57.870Z,82.08
2019-05-06T23:20:32.119Z,82.29
2019-05-06T23:23:05.035Z,82.24
2019-05-06T23:25:37.665Z,82.25
2019-05-06T23:28:12.055Z,82.25
2019-05-06T23:30:44.659Z,82.21
2019-05-06T23:33:17.265Z,82.11
2019-05-06T23:35:51.496Z,82.13
2019-05-06T23:38:47.197Z,82.22
2019-05-06T23:41:42.349Z,82.11
2019-05-06T23:44:45.782Z,81.96
2019-05-06T23:47:42.244Z,81.81
2019-05-06T23:50:37.215Z,81.72
2019-05-06T23:53:32.593Z,81.89
2019-05-06T23:56:27.670Z,81.95
2019-05-06T23:59:01.211Z,82.02
